createdAt,value
2022-12-15T00:00:37.853Z,96196.54
2022-12-15T00:03:28.745Z,96194.17
2022-12-15T00:06:20.669Z,96198.58
2022-12-15T00:09:14.225Z,96199.77
2022-12-15T00:12:02.727Z,96202.13
2022-12-15T00:14:52.147Z,96204.50
2022-12-15T00:17:41.928Z,96203.80
2022-12-15T00:20:31.988Z,96211.42
2022-12-15T00:23:28.492Z,96216.14
2022-12-15T00:26:18.849Z,96219.04
2022-12-15T00:29:09.268Z,96224.79
2022-12-15T00:31:59.522Z,96229.35
2022-12-15T00:34:49.112Z,96237.80
2022-12-15T00:37:38.896Z,96244.23
2022-12-15T00:40:14.129Z,96253.36
2022-12-15T00:42:49.594Z,96255.56
2022-12-15T00:45:42.468Z,96257.59
2022-12-15T00:48:15.061Z,96266.05
2022-12-15T00:50:53.926Z,96273.83
2022-12-15T00:53:44.118Z,96280.08
2022-12-15T00:56:33.808Z,96279.72
2022-12-15T00:59:23.149Z,96284.96
2022-12-15T01:02:13.269Z,96284.80
2022-12-15T01:05:02.932Z,96290.23
2022-12-15T01:07:53.278Z,96289.56
2022-12-15T01:10:42.658Z,96285.66
2022-12-15T01:13:34.513Z,96290.90
2022-12-15T01:16:31.220Z,96288.53
2022-12-15T01:19:21.637Z,96284.98
2022-12-15T01:21:54.246Z,96290.39
2022-12-15T01:24:27.228Z,96292.27
2022-12-15T01:26:59.759Z,96293.44
2022-12-15T01:29:33.218Z,96291.23
2022-12-15T01:32:05.917Z,96292.75
2022-12-15T01:34:38.719Z,96293.77
2022-12-15T01:37:11.426Z,96295.63
2022-12-15T01:40:01.372Z,96297.67
2022-12-15T01:42:33.997Z,96300.20
2022-12-15T01:45:36.408Z,96301.39
2022-12-15T01:48:14.498Z,96301.89
2022-12-15T01:50:56.025Z,96306.96
2022-12-15T01:53:30.750Z,96304.42
2022-12-15T01:56:05.537Z,96306.13
2022-12-15T01:58:39.479Z,96309.33
2022-12-15T02:01:12.594Z,96309.35
2022-12-15T02:03:48.698Z,96316.61
2022-12-15T02:06:23.319Z,96314.08
2022-12-15T02:08:58.979Z,96311.72
2022-12-15T02:11:51.615Z,96322.19
2022-12-15T02:14:37.230Z,96323.20
2022-12-15T02:17:23.579Z,96328.45
2022-12-15T02:20:30.952Z,96328.78
2022-12-15T02:23:26.929Z,96330.65
2022-12-15T02:26:20.900Z,96337.27
2022-12-15T02:29:04.895Z,96345.22
2022-12-15T02:31:54.309Z,96342.52
2022-12-15T02:34:35.101Z,96345.39
2022-12-15T02:37:13.303Z,96348.09
2022-12-15T02:39:45.700Z,96350.63
2022-12-15T02:42:18.407Z,96349.95
2022-12-15T02:44:55.640Z,96351.14
2022-12-15T02:47:37.689Z,96353.16
2022-12-15T02:50:48.447Z,96357.73
2022-12-15T02:53:39.767Z,96359.42
2022-12-15T02:56:20.237Z,96361.64
2022-12-15T02:59:01.649Z,96365.20
2022-12-15T03:01:38.842Z,96364.19
2022-12-15T03:04:13.868Z,96362.15
2022-12-15T03:06:46.599Z,96369.93
2022-12-15T03:09:19.179Z,96369.60
2022-12-15T03:11:52.107Z,96370.95
2022-12-15T03:14:26.687Z,96370.95
2022-12-15T03:16:59.682Z,96376.02
2022-12-15T03:19:32.369Z,96379.91
2022-12-15T03:22:05.861Z,96372.30
2022-12-15T03:24:39.046Z,96369.25
2022-12-15T03:27:11.711Z,96369.42
2022-12-15T03:29:44.330Z,96369.59
2022-12-15T03:32:16.990Z,96377.38
2022-12-15T03:34:49.766Z,96380.08
2022-12-15T03:37:22.499Z,96381.79
2022-12-15T03:39:55.091Z,96381.27
2022-12-15T03:42:41.318Z,96381.09
2022-12-15T03:45:14.285Z,96383.81
2022-12-15T03:47:47.556Z,96387.71
2022-12-15T03:50:22.439Z,96392.80
2022-12-15T03:52:56.158Z,96399.55
2022-12-15T03:55:29.798Z,96401.91
2022-12-15T03:58:00.939Z,96408.35
2022-12-15T04:00:34.326Z,96406.15
2022-12-15T04:03:07.541Z,96410.89
2022-12-15T04:05:40.330Z,96413.93
2022-12-15T04:08:13.198Z,96416.64
2022-12-15T04:10:45.647Z,96422.90
2022-12-15T04:13:18.278Z,96422.90
2022-12-15T04:15:50.699Z,96418.16
2022-12-15T04:18:24.088Z,96421.23
2022-12-15T04:20:56.758Z,96422.07
2022-12-15T04:23:30.174Z,96430.36
2022-12-15T04:26:20.231Z,96433.90
2022-12-15T04:29:09.858Z,96434.92
2022-12-15T04:32:01.570Z,96439.50
2022-12-15T04:34:51.098Z,96444.25
2022-12-15T04:37:40.839Z,96447.45
2022-12-15T04:40:31.551Z,96450.67
2022-12-15T04:43:21.468Z,96453.56
2022-12-15T04:46:11.147Z,96454.58
2022-12-15T04:49:00.736Z,96454.73
2022-12-15T04:51:53.063Z,96454.74
2022-12-15T04:54:43.497Z,96457.12
2022-12-15T04:57:33.118Z,96460.00
2022-12-15T05:00:23.746Z,96462.88
2022-12-15T05:03:18.100Z,96470.15
2022-12-15T05:06:08.277Z,96471.00
2022-12-15T05:08:58.289Z,96480.15
2022-12-15T05:11:48.043Z,96484.88
2022-12-15T05:14:37.836Z,96489.12
2022-12-15T05:17:28.043Z,96490.98
2022-12-15T05:20:18.231Z,96495.75
2022-12-15T05:23:13.569Z,96506.77
2022-12-15T05:26:03.808Z,96513.36
2022-12-15T05:28:54.070Z,96516.24
2022-12-15T05:31:45.519Z,96519.80
2022-12-15T05:34:18.255Z,96522.68
2022-12-15T05:36:51.477Z,96524.03
2022-12-15T05:39:24.718Z,96528.59
2022-12-15T05:41:58.698Z,96528.27
2022-12-15T05:44:33.485Z,96527.25
2022-12-15T05:47:06.434Z,96529.95
2022-12-15T05:49:39.217Z,96537.23
2022-12-15T05:52:11.880Z,96546.36
2022-12-15T05:54:44.558Z,96551.29
2022-12-15T05:57:17.487Z,96560.24
2022-12-15T05:59:50.088Z,96562.61
2022-12-15T06:02:22.972Z,96559.92
2022-12-15T06:04:55.768Z,96564.64
2022-12-15T06:07:28.818Z,96574.13
2022-12-15T06:10:01.278Z,96580.39
2022-12-15T06:12:34.078Z,96587.84
2022-12-15T06:15:07.234Z,96593.60
2022-12-15T06:17:40.579Z,96596.81
2022-12-15T06:20:14.098Z,96607.99
2022-12-15T06:22:50.077Z,96607.65
2022-12-15T06:25:22.558Z,96610.19
2022-12-15T06:28:00.013Z,96612.38
2022-12-15T06:30:34.117Z,96613.06
2022-12-15T06:33:06.837Z,96627.13
2022-12-15T06:35:41.097Z,96636.95
2022-12-15T06:38:12.001Z,96645.91
2022-12-15T06:40:44.982Z,96649.96
2022-12-15T06:43:17.758Z,96651.98
2022-12-15T06:45:53.346Z,96657.07
2022-12-15T06:48:27.596Z,96664.00
2022-12-15T06:51:04.458Z,96669.43
2022-12-15T06:53:41.360Z,96680.27
2022-12-15T06:56:23.198Z,96676.54
2022-12-15T06:58:58.988Z,96681.27
2022-12-15T07:01:32.161Z,96694.11
2022-12-15T07:04:06.182Z,96699.65
2022-12-15T07:06:40.540Z,96710.50
2022-12-15T07:09:18.587Z,96717.49
2022-12-15T07:11:51.705Z,96717.34
2022-12-15T07:14:26.137Z,96724.97
2022-12-15T07:16:58.566Z,96730.39
2022-12-15T07:19:31.840Z,96732.58
2022-12-15T07:22:04.407Z,96730.70
2022-12-15T07:24:37.407Z,96729.00
2022-12-15T07:27:09.898Z,96732.36
2022-12-15T07:29:42.668Z,96734.92
2022-12-15T07:32:16.028Z,96739.70
2022-12-15T07:34:48.796Z,96746.66
2022-12-15T07:37:22.459Z,96760.89
2022-12-15T07:39:55.555Z,96766.13
2022-12-15T07:42:32.724Z,96765.63
2022-12-15T07:45:05.902Z,96768.40
2022-12-15T07:47:38.829Z,96778.08
2022-12-15T07:50:12.610Z,96782.60
2022-12-15T07:52:43.556Z,96793.74
2022-12-15T07:55:16.975Z,96805.95
2022-12-15T07:57:52.307Z,96813.25
2022-12-15T08:00:28.567Z,96818.20
2022-12-15T08:03:03.110Z,96823.77
2022-12-15T08:05:36.812Z,96814.83
2022-12-15T08:08:10.922Z,96811.46
2022-12-15T08:10:48.138Z,96813.52
2022-12-15T08:13:52.919Z,96814.11
2022-12-15T08:16:14.313Z,96816.14
2022-12-15T08:19:00.278Z,96825.77
2022-12-15T08:21:33.798Z,96830.97
2022-12-15T08:24:06.570Z,96833.73
2022-12-15T08:26:40.000Z,96837.84
2022-12-15T08:32:09.481Z,96844.36
2022-12-15T08:34:42.987Z,96850.16
2022-12-15T08:37:15.729Z,96849.67
2022-12-15T08:39:48.687Z,96857.67
2022-12-15T08:42:21.594Z,96868.67
2022-12-15T08:44:54.114Z,96872.21
2022-12-15T08:47:26.928Z,96884.94
2022-12-15T08:49:59.706Z,96888.52
2022-12-15T08:52:32.462Z,96891.56
2022-12-15T08:55:05.237Z,96898.02
2022-12-15T08:57:37.911Z,96894.30
2022-12-15T09:00:12.339Z,96889.09
2022-12-15T09:02:45.127Z,96883.36
2022-12-15T09:05:17.727Z,96882.38
2022-12-15T09:07:50.318Z,96884.43
2022-12-15T09:10:23.018Z,96890.38
2022-12-15T09:12:56.226Z,96884.78
2022-12-15T09:15:59.914Z,96878.16
2022-12-15T09:18:22.070Z,96873.96
2022-12-15T09:20:54.769Z,96881.95
2022-12-15T09:23:29.903Z,96882.98
2022-12-15T09:26:05.850Z,96891.49
2022-12-15T09:28:39.075Z,96897.61
2022-12-15T09:31:13.943Z,96902.20
2022-12-15T09:33:47.736Z,96900.33
2022-12-15T09:36:19.050Z,96897.27
2022-12-15T09:38:52.370Z,96901.52
2022-12-15T09:41:28.392Z,96907.95
2022-12-15T09:44:05.048Z,96909.45
2022-12-15T09:47:12.321Z,96917.60
2022-12-15T09:49:55.013Z,96919.80
2022-12-15T09:52:30.659Z,96911.66
2022-12-15T09:55:05.079Z,96911.00
2022-12-15T09:57:46.449Z,96917.13
2022-12-15T10:00:26.154Z,96916.27
2022-12-15T10:03:12.671Z,96920.02
2022-12-15T10:06:15.996Z,96917.98
2022-12-15T10:08:52.161Z,96923.60
2022-12-15T10:11:38.388Z,96927.33
2022-12-15T10:14:23.459Z,96926.65
2022-12-15T10:17:05.067Z,96930.05
2022-12-15T10:19:43.599Z,96934.33
2022-12-15T10:22:18.849Z,96940.27
2022-12-15T10:28:07.622Z,96943.50
2022-12-15T10:30:47.533Z,96943.31
2022-12-15T10:33:26.045Z,96948.94
2022-12-15T10:36:00.269Z,96954.71
2022-12-15T10:38:38.348Z,96950.12
2022-12-15T10:41:14.160Z,96942.81
2022-12-15T10:43:48.561Z,96945.20
2022-12-15T10:46:26.058Z,96941.65
2022-12-15T10:49:02.851Z,96936.39
2022-12-15T10:51:38.244Z,96939.95
2022-12-15T10:54:16.539Z,96937.39
2022-12-15T10:56:54.673Z,96936.02
2022-12-15T10:59:31.258Z,96939.26
2022-12-15T11:02:27.829Z,96939.59
2022-12-15T11:05:02.093Z,96938.73
2022-12-15T11:07:41.078Z,96938.39
2022-12-15T11:10:19.990Z,96938.06
2022-12-15T11:13:02.068Z,96938.75
2022-12-15T11:15:51.641Z,96945.04
2022-12-15T11:18:36.643Z,96955.92
2022-12-15T11:21:20.526Z,96963.40
2022-12-15T11:24:04.331Z,96968.66
2022-12-15T11:26:49.052Z,96971.70
2022-12-15T11:29:31.403Z,96977.30
2022-12-15T11:32:07.266Z,96979.52
2022-12-15T11:34:44.260Z,96983.24
2022-12-15T11:37:37.775Z,96985.13
2022-12-15T11:40:36.130Z,96981.22
2022-12-15T11:43:35.945Z,96979.69
2022-12-15T11:46:20.664Z,96982.91
2022-12-15T11:48:59.327Z,96989.05
2022-12-15T11:51:40.970Z,96994.68
2022-12-15T11:54:24.785Z,96994.33
2022-12-15T11:57:04.740Z,96998.42
2022-12-15T11:59:53.562Z,96999.63
2022-12-15T12:02:51.915Z,96993.66
2022-12-15T12:05:37.719Z,96984.48
2022-12-15T12:08:27.028Z,96985.86
2022-12-15T12:11:07.180Z,96996.39
2022-12-15T12:13:50.315Z,97001.50
2022-12-15T12:16:33.819Z,97000.14
2022-12-15T12:19:11.860Z,97004.05
2022-12-15T12:24:48.898Z,97002.33
2022-12-15T12:27:32.158Z,96998.95
2022-12-15T12:30:07.780Z,97003.67
2022-12-15T12:32:50.371Z,97011.33
2022-12-15T12:35:33.207Z,97017.93
2022-12-15T12:38:08.038Z,97020.67
2022-12-15T12:40:50.546Z,97016.92
2022-12-15T12:43:33.976Z,97013.20
2022-12-15T12:46:12.187Z,97016.76
2022-12-15T12:48:51.255Z,97019.30
2022-12-15T12:51:31.452Z,97017.27
2022-12-15T12:54:12.745Z,97014.55
2022-12-15T12:56:50.615Z,97013.02
2022-12-15T12:59:42.511Z,97015.05
2022-12-15T13:02:55.487Z,97016.58
2022-12-15T13:05:33.518Z,97011.95
2022-12-15T13:08:42.721Z,97014.66
2022-12-15T13:11:49.006Z,97018.23
2022-12-15T13:14:26.636Z,97031.46
2022-12-15T13:20:29.583Z,97034.30
2022-12-15T13:23:34.941Z,97035.15
2022-12-15T13:26:20.228Z,97041.54
2022-12-15T13:28:58.090Z,97052.08
2022-12-15T13:31:54.290Z,97060.30
2022-12-15T13:34:30.111Z,97056.29
2022-12-15T13:37:04.349Z,97051.67
2022-12-15T13:39:53.259Z,97047.55
2022-12-15T13:42:56.194Z,97042.80
2022-12-15T13:45:48.836Z,97038.54
2022-12-15T13:48:39.395Z,97042.76
2022-12-15T13:51:25.009Z,97056.63
2022-12-15T13:54:01.405Z,97066.05
2022-12-15T13:56:47.858Z,97066.92
2022-12-15T13:59:37.768Z,97061.33
2022-12-15T14:02:27.480Z,97060.97
2022-12-15T14:05:17.841Z,97062.02
2022-12-15T14:07:54.733Z,97058.98
2022-12-15T14:10:30.412Z,97057.44
2022-12-15T14:13:16.057Z,97063.16
2022-12-15T14:15:52.778Z,97075.34
2022-12-15T14:18:34.008Z,97085.83
2022-12-15T14:21:25.219Z,97096.62
2022-12-15T14:24:36.535Z,97106.78
2022-12-15T14:26:51.514Z,97113.89
2022-12-15T14:29:24.279Z,97108.99
2022-12-15T14:31:58.990Z,97107.98
2022-12-15T14:34:35.218Z,97105.02
2022-12-15T14:37:18.128Z,97105.66
2022-12-15T14:39:52.647Z,97122.93
2022-12-15T14:42:28.479Z,97129.10
2022-12-15T14:45:02.371Z,97129.38
2022-12-15T14:47:36.999Z,97118.17
2022-12-15T14:50:13.590Z,97117.52
2022-12-15T14:52:48.689Z,97130.49
2022-12-15T14:55:35.831Z,97143.75
2022-12-15T14:58:36.068Z,97150.86
2022-12-15T15:01:26.717Z,97154.39
2022-12-15T15:03:09.591Z,97000.13
2022-12-15T15:04:03.828Z,97151.70
2022-12-15T15:06:47.709Z,97150.48
2022-12-15T15:09:28.593Z,97160.02
2022-12-15T15:12:05.841Z,97160.30
2022-12-15T15:14:43.889Z,97166.24
2022-12-15T15:17:25.362Z,97165.85
2022-12-15T15:20:01.998Z,97160.48
2022-12-15T15:22:40.029Z,97172.71
2022-12-15T15:25:41.408Z,97173.45
2022-12-15T15:28:28.886Z,97164.50
2022-12-15T15:31:07.189Z,97164.46
2022-12-15T15:33:42.189Z,97164.64
2022-12-15T15:36:17.074Z,97164.96
2022-12-15T15:38:50.508Z,97167.95
2022-12-15T15:41:30.852Z,97175.83
2022-12-15T15:44:04.849Z,97178.23
2022-12-15T15:46:44.741Z,97178.96
2022-12-15T15:49:21.130Z,97173.88
2022-12-15T15:51:56.681Z,97174.77
2022-12-15T15:54:37.240Z,97187.30
2022-12-15T15:57:11.099Z,97187.04
2022-12-15T15:59:44.763Z,97187.20
2022-12-15T16:02:18.199Z,97189.44
2022-12-15T16:04:51.247Z,97193.73
2022-12-15T16:07:27.340Z,97194.77
2022-12-15T16:10:00.848Z,97190.89
2022-12-15T16:12:37.968Z,97183.44
2022-12-15T16:15:17.595Z,97192.09
2022-12-15T16:17:50.977Z,97189.14
2022-12-15T16:20:25.799Z,97190.89
2022-12-15T16:23:02.119Z,97183.92
2022-12-15T16:25:46.609Z,97175.00
2022-12-15T16:28:24.791Z,97175.95
2022-12-15T16:30:59.362Z,97175.90
2022-12-15T16:33:32.447Z,97172.92
2022-12-15T16:36:08.840Z,97171.05
2022-12-15T16:39:19.890Z,97159.61
2022-12-15T16:41:53.369Z,97147.27
2022-12-15T16:44:27.240Z,97139.52
2022-12-15T16:47:01.557Z,97134.00
2022-12-15T16:49:39.943Z,97126.85
2022-12-15T16:52:21.736Z,97124.41
2022-12-15T16:54:54.732Z,97129.51
2022-12-15T16:57:27.619Z,97127.69
2022-12-15T17:00:00.220Z,97135.53
2022-12-15T17:02:33.859Z,97138.98
2022-12-15T17:05:07.338Z,97143.23
2022-12-15T17:07:40.950Z,97144.52
2022-12-15T17:10:17.098Z,97146.72
2022-12-15T17:12:50.421Z,97155.48
2022-12-15T17:15:27.520Z,97166.48
2022-12-15T17:18:00.097Z,97172.00
2022-12-15T17:20:34.220Z,97184.92
2022-12-15T17:23:09.481Z,97192.02
2022-12-15T17:26:19.580Z,97195.48
2022-12-15T17:28:41.080Z,97205.68
2022-12-15T17:31:19.416Z,97209.83
2022-12-15T17:33:53.710Z,97213.05
2022-12-15T17:36:29.247Z,97206.01
2022-12-15T17:39:03.180Z,97198.98
2022-12-15T17:41:58.536Z,97207.07
2022-12-15T17:44:34.115Z,97212.05
2022-12-15T17:47:09.180Z,97204.95
2022-12-15T17:49:42.970Z,97204.41
2022-12-15T17:52:28.424Z,97200.51
2022-12-15T17:55:02.051Z,97191.92
2022-12-15T17:57:35.489Z,97185.71
2022-12-15T18:00:19.429Z,97178.95
2022-12-15T18:02:52.337Z,97174.98
2022-12-15T18:05:31.217Z,97164.96
2022-12-15T18:08:09.110Z,97159.88
2022-12-15T18:10:42.851Z,97157.88
2022-12-15T18:13:24.230Z,97159.79
2022-12-15T18:15:57.846Z,97160.89
2022-12-15T18:18:28.859Z,97164.55
2022-12-15T18:21:04.931Z,97173.26
2022-12-15T18:23:37.568Z,97173.98
2022-12-15T18:26:11.195Z,97171.96
2022-12-15T18:28:42.081Z,97172.34
2022-12-15T18:31:21.743Z,97174.14
2022-12-15T18:34:04.779Z,97170.60
2022-12-15T18:36:38.303Z,97169.16
2022-12-15T18:39:21.019Z,97165.12
2022-12-15T18:41:55.159Z,97160.55
2022-12-15T18:44:30.776Z,97163.30
2022-12-15T18:47:26.905Z,97160.97
2022-12-15T18:50:00.031Z,97161.14
2022-12-15T18:52:35.047Z,97160.11
2022-12-15T18:55:16.359Z,97172.20
2022-12-15T18:57:49.689Z,97184.73
2022-12-15T19:00:26.301Z,97189.48
2022-12-15T19:03:02.096Z,97198.14
2022-12-15T19:05:34.777Z,97200.34
2022-12-15T19:08:13.717Z,97194.55
2022-12-15T19:10:51.348Z,97201.83
2022-12-15T19:13:25.999Z,97208.40
2022-12-15T19:15:59.316Z,97213.67
2022-12-15T19:18:49.798Z,97205.41
2022-12-15T19:21:41.248Z,97209.88
2022-12-15T19:24:17.768Z,97211.48
2022-12-15T19:26:50.522Z,97210.32
2022-12-15T19:29:25.012Z,97215.17
2022-12-15T19:32:00.063Z,97209.66
2022-12-15T19:34:34.719Z,97213.39
2022-12-15T19:37:16.374Z,97204.73
2022-12-15T19:39:52.275Z,97191.35
2022-12-15T19:42:32.309Z,97181.05
2022-12-15T19:45:15.794Z,97170.08
2022-12-15T19:47:50.279Z,97161.70
2022-12-15T19:50:27.638Z,97156.08
2022-12-15T19:53:03.099Z,97156.81
2022-12-15T19:55:38.040Z,97156.66
2022-12-15T19:58:28.925Z,97152.85
2022-12-15T20:01:03.737Z,97153.83
2022-12-15T20:03:39.644Z,97163.61
2022-12-15T20:06:18.609Z,97170.20
2022-12-15T20:08:54.814Z,97165.84
2022-12-15T20:11:31.387Z,97162.79
2022-12-15T20:14:05.299Z,97162.39
2022-12-15T20:16:38.020Z,97163.95
2022-12-15T20:19:11.329Z,97168.23
2022-12-15T20:21:44.746Z,97167.75
2022-12-15T20:24:21.839Z,97164.08
2022-12-15T20:26:56.187Z,97167.34
2022-12-15T20:29:30.767Z,97171.29
2022-12-15T20:32:08.873Z,97167.83
2022-12-15T20:34:42.150Z,97165.63
2022-12-15T20:37:22.159Z,97159.77
2022-12-15T20:39:57.742Z,97155.67
2022-12-15T20:42:31.357Z,97156.00
2022-12-15T20:45:02.657Z,97159.69
2022-12-15T20:47:35.799Z,97154.83
2022-12-15T20:50:22.824Z,97151.70
2022-12-15T20:52:56.311Z,97154.25
2022-12-15T20:55:33.390Z,97152.16
2022-12-15T20:58:10.868Z,97156.06
2022-12-15T21:00:52.184Z,97155.59
2022-12-15T21:03:37.105Z,97157.77
2022-12-15T21:06:17.507Z,97153.16
2022-12-15T21:08:56.343Z,97157.09
2022-12-15T21:11:33.638Z,97163.31
2022-12-15T21:14:11.568Z,97161.92
2022-12-15T21:16:44.478Z,97158.02
2022-12-15T21:19:20.984Z,97148.23
2022-12-15T21:21:56.009Z,97152.15
2022-12-15T21:24:30.536Z,97154.48
2022-12-15T21:27:04.738Z,97147.95
2022-12-15T21:29:37.817Z,97148.57
2022-12-15T21:32:10.849Z,97150.73
2022-12-15T21:34:44.418Z,97146.55
2022-12-15T21:37:28.918Z,97145.00
2022-12-15T21:40:02.255Z,97138.58
2022-12-15T21:42:38.368Z,97130.89
2022-12-15T21:45:17.310Z,97118.90
2022-12-15T21:48:08.511Z,97114.23
2022-12-15T21:50:43.546Z,97110.17
2022-12-15T21:53:18.048Z,97112.20
2022-12-15T21:55:51.221Z,97123.67
2022-12-15T21:58:27.916Z,97126.91
2022-12-15T22:01:01.019Z,97122.06
2022-12-15T22:03:34.249Z,97111.77
2022-12-15T22:06:08.858Z,97105.28
2022-12-15T22:08:42.151Z,97096.61
2022-12-15T22:11:24.082Z,97090.98
2022-12-15T22:13:58.879Z,97092.98
2022-12-15T22:16:32.227Z,97091.20
2022-12-15T22:19:05.530Z,97090.39
2022-12-15T22:22:09.738Z,97082.45
2022-12-15T22:24:42.716Z,97076.35
2022-12-15T22:27:22.361Z,97074.51
2022-12-15T22:29:57.861Z,97081.52
2022-12-15T22:35:58.108Z,97078.80
2022-12-15T22:38:31.163Z,97077.27
2022-12-15T22:41:04.848Z,97076.29
2022-12-15T22:43:41.468Z,97081.72
2022-12-15T22:46:16.643Z,97077.20
2022-12-15T22:48:50.658Z,97077.17
2022-12-15T22:51:24.048Z,97079.35
2022-12-15T22:53:56.859Z,97077.58
2022-12-15T22:56:36.149Z,97074.27
2022-12-15T22:59:14.509Z,97064.15
2022-12-15T23:01:47.574Z,97070.61
2022-12-15T23:04:20.571Z,97069.17
2022-12-15T23:06:53.048Z,97061.11
2022-12-15T23:09:28.445Z,97052.90
2022-12-15T23:12:01.040Z,97048.73
2022-12-15T23:14:52.038Z,97053.42
2022-12-15T23:17:25.071Z,97054.33
2022-12-15T23:19:57.966Z,97045.79
2022-12-15T23:22:31.928Z,97044.55
2022-12-15T23:25:07.880Z,97042.70
2022-12-15T23:27:40.788Z,97036.62
2022-12-15T23:30:15.181Z,97034.08
2022-12-15T23:32:47.588Z,97030.09
2022-12-15T23:35:20.479Z,97025.16
2022-12-15T23:37:52.813Z,97023.86
2022-12-15T23:40:25.768Z,97013.76
2022-12-15T23:42:58.566Z,97012.86
2022-12-15T23:45:31.317Z,97014.05
2022-12-15T23:48:03.720Z,97009.02
2022-12-15T23:50:37.257Z,97007.18
2022-12-15T23:53:08.397Z,97012.50
2022-12-15T23:55:41.467Z,97009.59
2022-12-15T23:58:14.448Z,97014.89
